Time;durP1;ratioP1;P1;durP2;ratioP2;P2;SDS_P1;SDS_P2;PMS_P1;PMS_P2;Temp;Humidity;BMP_temperature;BMP_pressure;BME280_temperature;BME280_humidity;BME280_pressure;Samples;Min_cycle;Max_cycle;Signal;HPM_P1;HPM_P2
2022/01/28 00:01:36;;;;;;;18.63;3.03;;;5.40;99.90;;;;;;5051333;28;20531;-64
2022/01/28 00:04:12;;;;;;;20.73;3.47;;;5.40;99.90;;;;;;5070109;28;20801;-65
2022/01/28 00:06:42;;;;;;;14.90;3.20;;;5.40;99.90;;;;;;5069868;28;20907;-64
2022/01/28 00:09:10;;;;;;;19.17;3.33;;;5.40;99.90;;;;;;5070190;28;20854;-64
2022/01/28 00:11:39;;;;;;;16.83;3.13;;;5.40;99.90;;;;;;5069924;28;20473;-64
2022/01/28 00:14:16;;;;;;;20.50;3.80;;;5.40;99.90;;;;;;5070305;28;20476;-64
2022/01/28 00:17:34;;;;;;;12.33;3.53;;;5.50;99.90;;;;;;5069973;28;20322;-64
2022/01/28 00:37:05;;;;;;;8.87;2.37;;;5.10;99.90;;;;;;5072058;28;20483;-64
2022/01/28 00:39:35;;;;;;;9.17;1.60;;;5.00;99.90;;;;;;5072623;28;20519;-64
2022/01/28 00:42:04;;;;;;;8.07;2.00;;;4.90;99.90;;;;;;5053006;28;20477;-64
2022/01/28 00:44:32;;;;;;;10.20;2.63;;;4.80;99.90;;;;;;5046023;28;20502;-64
2022/01/28 00:47:01;;;;;;;16.43;1.73;;;4.80;99.90;;;;;;5057838;28;20881;-64
2022/01/28 00:49:29;;;;;;;12.57;2.17;;;4.70;99.90;;;;;;5073495;28;20552;-64
2022/01/28 00:51:57;;;;;;;11.97;2.57;;;4.70;99.90;;;;;;5073268;28;21022;-64
2022/01/28 00:54:25;;;;;;;11.43;2.83;;;4.70;99.90;;;;;;5073355;28;20509;-64
2022/01/28 00:56:55;;;;;;;14.67;2.30;;;4.80;99.90;;;;;;5072982;28;20457;-64
2022/01/28 00:59:23;;;;;;;11.03;2.70;;;4.80;99.90;;;;;;5073290;28;20465;-64
2022/01/28 01:01:51;;;;;;;11.43;2.97;;;4.90;99.90;;;;;;5057105;28;20457;-64
2022/01/28 01:04:19;;;;;;;12.00;2.10;;;4.80;99.90;;;;;;5052817;28;20467;-64
2022/01/28 01:06:47;;;;;;;8.67;1.87;;;4.80;99.90;;;;;;5055632;28;20480;-64
2022/01/28 01:09:15;;;;;;;10.40;2.37;;;4.40;99.90;;;;;;5072874;28;20551;-64
2022/01/28 01:11:44;;;;;;;7.53;1.43;;;4.20;99.90;;;;;;5068478;28;20513;-64
2022/01/28 01:14:14;;;;;;;7.93;1.50;;;4.10;99.90;;;;;;5052632;28;20479;-64
2022/01/28 01:16:58;;;;;;;9.07;2.10;;;4.10;99.90;;;;;;5054946;28;20475;-64
2022/01/28 01:19:30;;;;;;;8.83;1.77;;;4.20;99.90;;;;;;5072894;28;20519;-64
2022/01/28 01:22:00;;;;;;;17.27;2.47;;;4.30;99.90;;;;;;5056689;28;20556;-63
2022/01/28 01:24:37;;;;;;;12.27;2.27;;;4.30;99.90;;;;;;5052525;28;20836;-64
2022/01/28 01:27:05;;;;;;;18.03;3.20;;;4.30;99.90;;;;;;5052320;28;20470;-64
2022/01/28 01:29:35;;;;;;;15.93;3.40;;;4.40;99.90;;;;;;5052328;28;20587;-64
2022/01/28 01:32:12;;;;;;;18.30;3.97;;;4.40;99.90;;;;;;5051825;28;20470;-64
2022/01/28 01:34:40;;;;;;;18.83;3.53;;;4.50;99.90;;;;;;5052436;28;20497;-64
2022/01/28 01:37:09;;;;;;;17.40;3.30;;;4.60;99.90;;;;;;5052126;28;20477;-63
2022/01/28 01:39:38;;;;;;;27.83;4.57;;;4.60;99.90;;;;;;5052714;28;20885;-64
2022/01/28 01:42:17;;;;;;;18.83;3.57;;;4.60;99.90;;;;;;5060476;28;20469;-65
2022/01/28 01:45:42;;;;;;;20.53;3.30;;;4.60;99.90;;;;;;5064596;28;20462;-65
2022/01/28 01:53:20;;;;;;;17.07;3.73;;;4.70;99.90;;;;;;5054324;28;20555;-64
2022/01/28 01:55:48;;;;;;;22.00;3.13;;;4.70;99.90;;;;;;5071878;28;20485;-64
2022/01/28 01:58:20;;;;;;;17.07;3.10;;;4.70;99.90;;;;;;5072034;28;20473;-64
2022/01/28 02:00:49;;;;;;;17.20;3.13;;;4.70;99.90;;;;;;5071163;28;20565;-64
2022/01/28 02:03:17;;;;;;;19.37;2.87;;;4.70;99.90;;;;;;5071558;28;20867;-64
2022/01/28 02:05:46;;;;;;;25.83;3.77;;;4.70;99.90;;;;;;5071439;28;20484;-64
2022/01/28 02:08:14;;;;;;;23.77;3.60;;;4.80;99.90;;;;;;5071446;28;20472;-63
2022/01/28 02:10:42;;;;;;;24.30;3.77;;;4.70;99.90;;;;;;5071338;28;20567;-63
2022/01/28 02:13:10;;;;;;;18.43;3.80;;;4.80;99.90;;;;;;5071205;28;20515;-64
2022/01/28 02:15:38;;;;;;;17.87;3.87;;;4.70;99.90;;;;;;5051684;28;20480;-64
2022/01/28 02:18:08;;;;;;;18.53;3.47;;;4.70;99.90;;;;;;5065603;28;20551;-64
2022/01/28 02:20:41;;;;;;;21.23;3.80;;;4.70;99.90;;;;;;5070973;28;20473;-64
2022/01/28 02:23:09;;;;;;;19.50;3.23;;;4.70;99.90;;;;;;5071293;28;20529;-64
2022/01/28 02:25:38;;;;;;;16.23;3.80;;;4.70;99.90;;;;;;5070959;28;20483;-64
2022/01/28 02:28:09;;;;;;;20.17;3.23;;;4.70;99.90;;;;;;5071275;28;20471;-64
2022/01/28 02:30:37;;;;;;;13.33;3.07;;;4.70;99.90;;;;;;5070951;28;20480;-63
2022/01/28 02:33:11;;;;;;;17.07;3.57;;;4.70;99.90;;;;;;5070932;28;20465;-63
2022/01/28 02:35:42;;;;;;;17.27;3.53;;;4.70;99.90;;;;;;5071076;28;20517;-63
2022/01/28 02:38:11;;;;;;;19.77;3.50;;;4.80;99.90;;;;;;5070954;28;20503;-64
2022/01/28 02:40:43;;;;;;;23.93;3.80;;;4.80;99.90;;;;;;5070586;28;20476;-64
2022/01/28 02:43:28;;;;;;;17.30;3.03;;;4.80;99.90;;;;;;5070016;28;20534;-64
2022/01/28 02:46:04;;;;;;;22.40;3.70;;;4.80;99.90;;;;;;5066826;28;20469;-64
2022/01/28 02:48:33;;;;;;;20.40;3.77;;;4.80;99.90;;;;;;5070178;28;20598;-64
2022/01/28 02:51:09;;;;;;;27.30;5.40;;;4.70;99.90;;;;;;5071153;28;20480;-64
2022/01/28 02:53:45;;;;;;;14.10;3.53;;;4.70;99.90;;;;;;5070684;28;20483;-64
2022/01/28 02:56:18;;;;;;;20.30;3.20;;;4.70;99.90;;;;;;5071171;28;20480;-64
2022/01/28 02:58:46;;;;;;;21.20;3.40;;;4.70;99.90;;;;;;5070711;28;20838;-64
2022/01/28 03:01:17;;;;;;;20.53;3.57;;;4.70;99.90;;;;;;5070345;28;20828;-64
2022/01/28 03:03:47;;;;;;;22.70;3.70;;;4.80;99.90;;;;;;5070675;28;20485;-64
2022/01/28 03:06:19;;;;;;;20.77;3.80;;;4.90;99.90;;;;;;5070603;28;20550;-63
2022/01/28 03:08:55;;;;;;;18.90;3.30;;;4.80;99.90;;;;;;5070339;28;20496;-64
2022/01/28 03:11:43;;;;;;;23.27;3.17;;;4.80;99.90;;;;;;5070757;28;20560;-64
2022/01/28 03:14:17;;;;;;;15.73;3.57;;;4.90;99.90;;;;;;5058796;28;20557;-64
2022/01/28 03:17:05;;;;;;;17.77;3.50;;;4.80;99.90;;;;;;5053394;28;20520;-63
2022/01/28 03:19:44;;;;;;;20.07;3.47;;;4.90;99.90;;;;;;5070423;28;20999;-64
2022/01/28 03:22:14;;;;;;;17.47;3.63;;;4.90;99.90;;;;;;5070387;28;20831;-64
2022/01/28 03:24:46;;;;;;;16.50;3.20;;;5.00;99.90;;;;;;5070576;28;20499;-64
2022/01/28 03:27:27;;;;;;;17.77;3.67;;;5.00;99.90;;;;;;5070516;28;20477;-64
2022/01/28 03:29:55;;;;;;;19.67;2.80;;;5.00;99.90;;;;;;5070907;28;20554;-65
2022/01/28 03:32:23;;;;;;;9.20;2.20;;;5.10;99.90;;;;;;5070674;28;20460;-64
2022/01/28 03:34:51;;;;;;;24.07;3.40;;;5.00;99.90;;;;;;5070732;28;20460;-64
2022/01/28 03:37:22;;;;;;;15.37;2.50;;;5.00;99.90;;;;;;5070432;28;20519;-64
2022/01/28 03:39:50;;;;;;;17.73;2.63;;;5.00;99.90;;;;;;5070139;28;20552;-64
2022/01/28 03:42:18;;;;;;;13.27;3.17;;;5.00;99.90;;;;;;5064780;28;20836;-64
2022/01/28 03:44:46;;;;;;;19.57;2.90;;;5.00;99.90;;;;;;5051415;28;20561;-64
2022/01/28 03:47:14;;;;;;;11.03;2.77;;;4.90;99.90;;;;;;5050371;28;20473;-63
2022/01/28 03:49:42;;;;;;;16.73;2.83;;;5.00;99.90;;;;;;5047180;28;20498;-64
2022/01/28 03:52:10;;;;;;;16.17;2.87;;;4.90;99.90;;;;;;5052598;28;20477;-64
2022/01/28 03:54:40;;;;;;;17.77;3.83;;;4.90;99.90;;;;;;5070085;28;20328;-64
2022/01/28 03:57:08;;;;;;;17.70;3.20;;;4.90;99.90;;;;;;5073695;28;20606;-64
2022/01/28 03:59:36;;;;;;;19.20;3.07;;;5.00;99.90;;;;;;5074617;28;20494;-64
2022/01/28 04:02:06;;;;;;;20.27;3.97;;;5.10;99.90;;;;;;5061814;28;20468;-63
2022/01/28 04:13:05;;;;;;;15.73;3.30;;;5.10;99.90;;;;;;5052395;28;20505;-63
2022/01/28 04:15:48;;;;;;;16.50;3.60;;;5.00;99.90;;;;;;5053734;28;20469;-64
2022/01/28 04:18:16;;;;;;;20.77;3.30;;;5.00;99.90;;;;;;5053775;28;20565;-64
2022/01/28 04:20:45;;;;;;;22.97;3.40;;;5.00;99.90;;;;;;5054240;28;20841;-64
2022/01/28 04:23:13;;;;;;;20.80;3.83;;;5.00;99.90;;;;;;5053721;28;20560;-64
2022/01/28 04:25:42;;;;;;;18.37;3.40;;;4.90;99.90;;;;;;5053566;28;20491;-64
2022/01/28 04:28:10;;;;;;;24.93;4.13;;;4.90;99.90;;;;;;5067879;28;20492;-64
2022/01/28 04:30:38;;;;;;;18.63;3.00;;;5.00;99.90;;;;;;5073609;28;21059;-64
2022/01/28 04:33:10;;;;;;;22.13;4.13;;;5.00;99.90;;;;;;5059062;28;20505;-64
2022/01/28 04:35:38;;;;;;;22.27;3.90;;;5.00;99.90;;;;;;5053353;28;20548;-64
2022/01/28 04:38:19;;;;;;;20.73;3.87;;;5.00;99.90;;;;;;5053233;28;20889;-64
2022/01/28 04:40:59;;;;;;;17.40;3.37;;;5.00;99.90;;;;;;5051679;28;20657;-64
2022/01/28 04:43:33;;;;;;;23.43;4.80;;;5.00;99.90;;;;;;5052933;28;20548;-64
2022/01/28 04:46:08;;;;;;;17.10;3.57;;;5.10;99.90;;;;;;5053049;28;20598;-64
2022/01/28 04:48:42;;;;;;;23.73;4.17;;;5.10;99.90;;;;;;5052997;28;20297;-64
2022/01/28 04:51:18;;;;;;;23.20;4.10;;;5.10;99.90;;;;;;5053186;28;21030;-64
2022/01/28 04:54:00;;;;;;;26.40;4.53;;;5.10;99.90;;;;;;5052837;28;21013;-64
2022/01/28 04:59:34;;;;;;;16.87;3.40;;;5.10;99.90;;;;;;5049430;28;20918;-64
2022/01/28 05:05:09;;;;;;;24.30;4.07;;;5.10;99.90;;;;;;5047415;28;20884;-64
2022/01/28 05:07:48;;;;;;;18.23;3.83;;;5.10;99.90;;;;;;5071598;28;20559;-64
2022/01/28 05:13:27;;;;;;;23.13;3.20;;;5.10;99.90;;;;;;5067459;28;20555;-64
2022/01/28 05:16:28;;;;;;;20.57;3.27;;;5.10;99.90;;;;;;5073189;28;20544;-64
2022/01/28 05:25:00;;;;;;;11.23;2.67;;;5.20;99.90;;;;;;5072655;28;20237;-64
2022/01/28 05:27:28;;;;;;;22.23;3.23;;;5.20;99.90;;;;;;5072096;28;20235;-64
2022/01/28 05:29:58;;;;;;;20.13;3.90;;;5.20;99.90;;;;;;5072863;28;20242;-63
2022/01/28 05:32:26;;;;;;;16.53;3.57;;;5.00;99.90;;;;;;5072437;28;20818;-64
2022/01/28 05:34:54;;;;;;;23.43;4.33;;;4.90;99.90;;;;;;5072612;28;20833;-64
2022/01/28 05:37:22;;;;;;;21.33;3.27;;;4.90;99.90;;;;;;5072445;28;20469;-64
2022/01/28 05:39:50;;;;;;;19.03;3.77;;;4.80;99.90;;;;;;5071948;28;20552;-64
2022/01/28 05:42:18;;;;;;;20.03;3.13;;;4.80;99.90;;;;;;5057929;28;20705;-64
2022/01/28 05:44:46;;;;;;;17.27;3.13;;;4.80;99.90;;;;;;5052031;28;20473;-63
2022/01/28 05:47:16;;;;;;;21.83;4.10;;;4.70;99.90;;;;;;5058516;28;20556;-64
2022/01/28 05:49:45;;;;;;;24.57;4.07;;;4.70;99.90;;;;;;5072036;28;20473;-64
2022/01/28 05:52:13;;;;;;;23.00;4.83;;;4.70;99.90;;;;;;5071952;28;20489;-64
2022/01/28 05:54:41;;;;;;;18.30;4.13;;;4.70;99.90;;;;;;5071946;28;20477;-64
2022/01/28 05:57:09;;;;;;;22.83;3.70;;;4.70;99.90;;;;;;5071893;28;20474;-64
2022/01/28 05:59:37;;;;;;;16.10;3.47;;;4.70;99.90;;;;;;5071361;28;20469;-64
2022/01/28 06:02:05;;;;;;;20.23;3.43;;;4.70;99.90;;;;;;5050594;28;20986;-64
2022/01/28 06:04:37;;;;;;;27.03;4.30;;;4.70;99.90;;;;;;5051725;28;20550;-64
2022/01/28 06:07:05;;;;;;;25.77;4.27;;;4.70;99.90;;;;;;5057028;28;20797;-64
2022/01/28 06:09:33;;;;;;;22.57;5.23;;;4.70;99.90;;;;;;5071677;28;20469;-64
2022/01/28 06:12:01;;;;;;;19.70;3.10;;;4.70;99.90;;;;;;5061350;28;20474;-63
2022/01/28 06:14:29;;;;;;;23.90;4.00;;;4.80;99.90;;;;;;5061033;28;20465;-64
2022/01/28 06:16:57;;;;;;;19.83;3.20;;;4.80;99.90;;;;;;5056258;28;20888;-64
2022/01/28 06:19:25;;;;;;;20.60;4.03;;;4.80;99.90;;;;;;5063405;28;20480;-64
2022/01/28 06:21:55;;;;;;;20.60;4.37;;;4.80;99.90;;;;;;5058670;28;20857;-63
2022/01/28 06:24:23;;;;;;;26.07;4.80;;;4.80;99.90;;;;;;5054924;28;20468;-63
2022/01/28 06:26:51;;;;;;;20.73;3.50;;;4.80;99.90;;;;;;5051221;28;20477;-63
2022/01/28 06:29:19;;;;;;;18.07;4.10;;;4.80;99.90;;;;;;5070867;28;20472;-65
2022/01/28 06:31:49;;;;;;;22.70;4.13;;;4.80;99.90;;;;;;5054076;28;20837;-64
2022/01/28 06:34:17;;;;;;;20.67;4.30;;;4.80;99.90;;;;;;5071429;28;20463;-63
2022/01/28 06:36:45;;;;;;;20.43;3.83;;;4.80;99.90;;;;;;5068847;28;20481;-64
2022/01/28 06:39:15;;;;;;;21.93;3.43;;;4.80;99.90;;;;;;5050818;28;20557;-64
2022/01/28 06:41:43;;;;;;;17.27;3.10;;;4.80;99.90;;;;;;5054015;28;21040;-64
2022/01/28 06:44:11;;;;;;;24.50;4.10;;;4.80;99.90;;;;;;5047253;28;20474;-64
2022/01/28 06:46:40;;;;;;;29.63;4.73;;;4.90;99.90;;;;;;5035194;28;20997;-64
2022/01/28 06:49:08;;;;;;;25.03;4.50;;;4.90;99.90;;;;;;5050872;28;20470;-64
2022/01/28 06:51:37;;;;;;;22.17;4.10;;;4.90;99.90;;;;;;5052142;28;20564;-64
2022/01/28 06:54:05;;;;;;;20.53;4.03;;;4.90;99.90;;;;;;5055373;28;20474;-63
2022/01/28 06:56:35;;;;;;;23.20;3.33;;;5.00;99.90;;;;;;5051633;28;20562;-63
2022/01/28 06:59:04;;;;;;;20.87;3.60;;;5.00;99.90;;;;;;5055681;28;20474;-64
2022/01/28 07:01:33;;;;;;;21.50;3.80;;;5.00;99.90;;;;;;5048795;28;20479;-64
2022/01/28 07:04:01;;;;;;;16.83;3.90;;;5.00;99.90;;;;;;5045034;28;20822;-64
2022/01/28 07:06:29;;;;;;;27.20;3.83;;;5.00;99.90;;;;;;5051293;28;20481;-64
2022/01/28 07:08:57;;;;;;;20.47;3.53;;;5.10;99.90;;;;;;5050060;28;20496;-64
2022/01/28 07:11:25;;;;;;;18.83;3.70;;;5.00;99.90;;;;;;5050879;28;20465;-64
2022/01/28 07:13:54;;;;;;;20.07;3.30;;;5.10;99.90;;;;;;5050882;28;20927;-64
2022/01/28 07:16:23;;;;;;;15.30;3.37;;;5.10;99.90;;;;;;5050863;28;20468;-64
2022/01/28 07:18:51;;;;;;;24.80;4.20;;;5.10;99.90;;;;;;5066684;28;20469;-65
2022/01/28 07:21:19;;;;;;;19.93;3.33;;;5.10;99.90;;;;;;5051299;28;20550;-64
2022/01/28 07:23:47;;;;;;;23.70;4.40;;;5.10;99.90;;;;;;5052767;28;20882;-64
2022/01/28 07:26:15;;;;;;;20.60;3.80;;;5.10;99.90;;;;;;5053544;28;20473;-64
2022/01/28 07:28:44;;;;;;;14.97;3.50;;;5.10;99.90;;;;;;5045860;28;20993;-64
2022/01/28 07:31:15;;;;;;;20.30;3.30;;;5.10;99.90;;;;;;5033512;28;21050;-64
2022/01/28 07:33:43;;;;;;;17.10;3.13;;;5.10;99.90;;;;;;5052473;28;20485;-64
2022/01/28 07:36:11;;;;;;;17.57;3.60;;;5.10;99.90;;;;;;5052855;28;20551;-65
2022/01/28 07:38:39;;;;;;;18.70;3.63;;;5.10;99.90;;;;;;5058136;28;20481;-64
2022/01/28 07:41:07;;;;;;;21.20;4.00;;;5.10;99.90;;;;;;5050447;28;20595;-64
2022/01/28 07:43:38;;;;;;;19.80;4.50;;;5.10;99.90;;;;;;5048350;28;20313;-64
2022/01/28 07:46:06;;;;;;;20.47;4.43;;;5.10;99.90;;;;;;5052694;28;20560;-64
2022/01/28 07:48:36;;;;;;;21.67;4.80;;;5.10;99.90;;;;;;5055951;28;20549;-64
2022/01/28 07:51:04;;;;;;;17.80;2.73;;;5.10;99.90;;;;;;5056417;28;20477;-65
2022/01/28 07:53:32;;;;;;;19.57;4.00;;;5.20;99.90;;;;;;5054248;28;20474;-65
2022/01/28 07:56:00;;;;;;;13.20;3.63;;;5.20;99.90;;;;;;5055299;28;20461;-64
2022/01/28 07:58:28;;;;;;;20.33;3.37;;;5.20;99.90;;;;;;5062355;28;20566;-64
2022/01/28 08:00:56;;;;;;;16.17;3.30;;;5.20;99.90;;;;;;5062938;28;20458;-64
2022/01/28 08:03:25;;;;;;;23.83;4.27;;;5.10;99.90;;;;;;5064875;28;20471;-64
2022/01/28 08:05:54;;;;;;;25.53;4.10;;;5.10;99.90;;;;;;5057508;28;20461;-64
2022/01/28 08:08:23;;;;;;;21.23;4.37;;;5.00;99.90;;;;;;5057607;28;20557;-64
2022/01/28 08:10:51;;;;;;;21.97;3.77;;;5.00;99.90;;;;;;5053956;28;20860;-64
2022/01/28 08:13:19;;;;;;;17.30;3.53;;;5.00;99.90;;;;;;5047166;28;20662;-64
2022/01/28 08:15:48;;;;;;;22.33;3.80;;;5.00;99.90;;;;;;5053759;28;20469;-64
2022/01/28 08:18:16;;;;;;;21.20;3.93;;;5.00;99.90;;;;;;5052372;28;20494;-64
2022/01/28 08:20:46;;;;;;;23.17;4.43;;;4.90;99.90;;;;;;5054883;28;20471;-64
2022/01/28 08:23:16;;;;;;;26.77;4.47;;;4.90;99.90;;;;;;5057215;28;20239;-64
2022/01/28 08:25:45;;;;;;;20.17;4.03;;;5.00;99.90;;;;;;5056805;28;20986;-64
2022/01/28 08:28:13;;;;;;;18.97;3.60;;;5.00;99.90;;;;;;5053707;28;20289;-64
2022/01/28 08:30:41;;;;;;;22.53;3.77;;;5.00;99.90;;;;;;5052826;28;20239;-64
2022/01/28 08:33:09;;;;;;;19.87;4.23;;;5.10;99.90;;;;;;5053325;28;20314;-64
2022/01/28 08:35:39;;;;;;;19.93;3.13;;;5.10;99.90;;;;;;5049324;28;20470;-64
2022/01/28 08:38:14;;;;;;;17.53;3.43;;;5.10;99.90;;;;;;5053645;28;20882;-64
2022/01/28 08:40:45;;;;;;;25.63;4.50;;;5.10;99.90;;;;;;5050717;28;20503;-64
2022/01/28 08:43:13;;;;;;;29.27;4.20;;;5.20;99.90;;;;;;5067020;28;20475;-64
2022/01/28 08:45:42;;;;;;;23.50;4.23;;;5.20;99.90;;;;;;5055937;28;20477;-64
2022/01/28 08:48:10;;;;;;;24.40;4.10;;;5.20;99.90;;;;;;5058148;28;20478;-64
2022/01/28 08:50:38;;;;;;;19.70;3.93;;;5.20;99.90;;;;;;5052822;28;20553;-64
2022/01/28 08:53:06;;;;;;;26.10;5.30;;;5.30;99.90;;;;;;5058820;28;20473;-64
2022/01/28 08:55:35;;;;;;;16.23;3.50;;;5.30;99.90;;;;;;5051133;28;20516;-64
2022/01/28 08:58:04;;;;;;;27.00;4.57;;;5.40;99.90;;;;;;5052812;28;20573;-64
2022/01/28 09:00:32;;;;;;;19.60;3.53;;;5.40;99.90;;;;;;5052740;28;20480;-64
2022/01/28 09:03:01;;;;;;;27.93;3.90;;;5.50;99.90;;;;;;5062066;28;21291;-65
2022/01/28 09:05:29;;;;;;;28.07;4.83;;;5.50;99.90;;;;;;5057598;28;20472;-64
2022/01/28 09:07:58;;;;;;;23.53;3.60;;;5.50;99.90;;;;;;5056585;28;20469;-64
2022/01/28 09:10:30;;;;;;;27.17;4.63;;;5.50;99.90;;;;;;5054167;28;20597;-65
2022/01/28 09:13:21;;;;;;;26.43;4.57;;;5.60;99.90;;;;;;5054333;28;20474;-64
2022/01/28 09:15:53;;;;;;;18.10;3.77;;;5.70;99.90;;;;;;5047328;28;24133;-64
2022/01/28 09:18:21;;;;;;;26.87;4.90;;;5.70;99.90;;;;;;5062639;28;20622;-64
2022/01/28 09:20:50;;;;;;;24.47;4.73;;;5.70;99.90;;;;;;5057180;28;20530;-64
2022/01/28 09:23:18;;;;;;;21.80;3.83;;;5.80;99.90;;;;;;5058299;28;20246;-64
2022/01/28 09:25:46;;;;;;;22.60;3.70;;;5.80;99.90;;;;;;5060734;28;20910;-64
2022/01/28 09:28:15;;;;;;;29.27;4.63;;;5.90;99.90;;;;;;5053918;28;20235;-64
2022/01/28 09:30:43;;;;;;;20.33;4.17;;;5.90;99.90;;;;;;5057670;28;20716;-64
2022/01/28 09:33:14;;;;;;;24.23;4.20;;;5.90;99.90;;;;;;5054975;28;20488;-65
2022/01/28 09:35:44;;;;;;;22.00;4.10;;;5.90;99.90;;;;;;5060014;28;20273;-64
2022/01/28 09:38:14;;;;;;;18.13;3.33;;;6.00;99.90;;;;;;5055524;28;20579;-64
2022/01/28 09:40:43;;;;;;;21.23;4.10;;;6.00;99.90;;;;;;5051977;28;21314;-64
2022/01/28 09:43:11;;;;;;;22.50;4.40;;;6.00;99.90;;;;;;5060015;28;20242;-63
2022/01/28 09:45:39;;;;;;;23.30;4.03;;;6.10;99.90;;;;;;5051919;28;20822;-64
2022/01/28 09:48:07;;;;;;;17.63;4.03;;;6.10;99.90;;;;;;5057608;28;20470;-63
2022/01/28 09:50:36;;;;;;;23.10;3.70;;;6.10;99.90;;;;;;5055989;28;20688;-64
2022/01/28 09:53:05;;;;;;;18.70;4.03;;;6.10;99.90;;;;;;5053230;28;20588;-64
2022/01/28 09:55:33;;;;;;;26.93;4.47;;;6.20;99.90;;;;;;5051476;28;20604;-64
2022/01/28 09:58:01;;;;;;;23.63;4.80;;;6.10;99.90;;;;;;5058754;28;20243;-65
2022/01/28 10:00:31;;;;;;;23.80;4.63;;;6.20;99.90;;;;;;5056424;28;20250;-65
2022/01/28 10:03:03;;;;;;;23.30;4.77;;;6.20;99.90;;;;;;5057007;28;20258;-64
2022/01/28 10:05:33;;;;;;;25.20;4.47;;;6.20;99.90;;;;;;5065104;28;20480;-64
2022/01/28 10:08:07;;;;;;;19.90;4.23;;;6.20;99.90;;;;;;5066737;28;20245;-64
2022/01/28 10:10:51;;;;;;;24.80;4.10;;;6.20;99.90;;;;;;5069530;28;20241;-64
2022/01/28 10:13:26;;;;;;;28.37;5.33;;;6.30;99.90;;;;;;5071499;28;20416;-64
2022/01/28 10:16:03;;;;;;;26.97;4.57;;;6.30;99.90;;;;;;5071568;28;20230;-61
2022/01/28 10:18:37;;;;;;;21.93;4.57;;;6.40;99.90;;;;;;5067117;28;20223;-61
2022/01/28 10:21:16;;;;;;;24.90;3.93;;;6.40;99.90;;;;;;5068284;28;20571;-61
2022/01/28 10:23:59;;;;;;;24.80;4.23;;;6.40;99.90;;;;;;5071261;28;20325;-61
2022/01/28 10:26:29;;;;;;;24.17;3.97;;;6.40;99.90;;;;;;5071470;28;20259;-62
2022/01/28 10:28:58;;;;;;;23.07;4.43;;;6.50;99.90;;;;;;5063307;28;20241;-61
2022/01/28 10:31:35;;;;;;;25.90;3.93;;;6.50;99.90;;;;;;5069859;28;20259;-61
2022/01/28 10:34:11;;;;;;;19.93;4.50;;;6.40;99.90;;;;;;5058053;28;20738;-61
2022/01/28 10:36:43;;;;;;;23.33;4.93;;;6.40;99.90;;;;;;5071079;28;20239;-61
2022/01/28 10:39:18;;;;;;;23.97;4.37;;;6.50;99.90;;;;;;5071350;28;20227;-61
2022/01/28 10:41:58;;;;;;;20.73;3.60;;;6.50;99.90;;;;;;5070977;28;20243;-61
2022/01/28 10:44:28;;;;;;;21.77;4.23;;;6.60;99.90;;;;;;5071120;28;20322;-61
2022/01/28 10:46:59;;;;;;;19.93;4.13;;;6.70;99.90;;;;;;5071335;28;20297;-61
2022/01/28 10:49:29;;;;;;;18.83;3.70;;;6.90;99.90;;;;;;5062747;28;20228;-61
2022/01/28 10:52:06;;;;;;;20.17;3.83;;;7.00;99.90;;;;;;5055027;28;20242;-61
2022/01/28 10:54:36;;;;;;;30.73;4.73;;;7.10;99.90;;;;;;5070363;28;20326;-61
2022/01/28 10:57:06;;;;;;;24.40;4.50;;;7.10;99.90;;;;;;5070480;28;20239;-61
2022/01/28 10:59:36;;;;;;;21.17;3.77;;;7.20;99.90;;;;;;5070912;28;20651;-61
2022/01/28 11:02:05;;;;;;;24.93;3.87;;;7.10;99.90;;;;;;5070220;28;20235;-61
2022/01/28 11:04:34;;;;;;;18.40;3.93;;;7.00;99.90;;;;;;5069777;28;20262;-61
2022/01/28 11:07:04;;;;;;;21.07;4.30;;;7.00;99.90;;;;;;5045340;28;20726;-62
2022/01/28 11:09:32;;;;;;;17.70;3.70;;;6.90;99.90;;;;;;5063038;28;20244;-62
2022/01/28 11:12:03;;;;;;;26.20;4.17;;;6.90;99.90;;;;;;5059191;28;20238;-62
2022/01/28 11:14:31;;;;;;;22.97;4.73;;;7.00;99.90;;;;;;5070350;28;20279;-62
2022/01/28 11:17:00;;;;;;;25.60;4.47;;;7.10;99.90;;;;;;5071131;28;20239;-61
2022/01/28 11:19:32;;;;;;;16.10;3.30;;;7.20;99.90;;;;;;5059731;28;20322;-61
2022/01/28 11:22:16;;;;;;;27.33;4.73;;;7.20;99.90;;;;;;5055386;28;20238;-62
2022/01/28 11:25:07;;;;;;;20.07;3.80;;;7.20;99.90;;;;;;5070610;28;20239;-61
2022/01/28 11:27:38;;;;;;;25.93;4.23;;;7.20;99.90;;;;;;5055893;28;20255;-61
2022/01/28 11:30:22;;;;;;;24.77;4.17;;;7.20;99.90;;;;;;5049640;28;20712;-61
2022/01/28 11:33:01;;;;;;;27.77;4.27;;;7.20;99.90;;;;;;5050045;28;20243;-61
2022/01/28 11:35:33;;;;;;;21.37;3.27;;;7.20;99.90;;;;;;5050071;28;20224;-61
2022/01/28 11:38:05;;;;;;;20.37;3.70;;;7.30;99.90;;;;;;5047841;28;20286;-61
2022/01/28 11:40:44;;;;;;;21.80;4.00;;;7.20;99.90;;;;;;5041117;28;20692;-61
2022/01/28 11:43:21;;;;;;;18.60;3.80;;;7.30;99.90;;;;;;5046657;28;20314;-61
2022/01/28 11:46:05;;;;;;;29.00;4.17;;;7.30;99.90;;;;;;5040373;28;20236;-61
2022/01/28 11:49:15;;;;;;;28.53;3.90;;;7.30;99.90;;;;;;5044809;28;20243;-62
2022/01/28 11:51:44;;;;;;;16.97;3.33;;;7.30;99.90;;;;;;5037937;28;20318;-61
2022/01/28 11:54:14;;;;;;;20.93;4.30;;;7.40;99.90;;;;;;5070079;28;20333;-61
2022/01/28 11:57:13;;;;;;;22.00;3.87;;;7.40;99.90;;;;;;5052972;28;20253;-61
2022/01/28 11:59:44;;;;;;;22.27;3.80;;;7.20;99.90;;;;;;5069541;28;20227;-61
2022/01/28 12:02:19;;;;;;;21.87;3.90;;;7.10;99.90;;;;;;5068776;28;20266;-61
2022/01/28 12:04:48;;;;;;;21.50;4.90;;;7.10;99.90;;;;;;5070015;28;20271;-61
2022/01/28 12:07:23;;;;;;;24.37;3.83;;;7.10;99.90;;;;;;5068196;28;20251;-61
2022/01/28 12:09:53;;;;;;;32.17;4.43;;;7.10;99.90;;;;;;5068933;28;20651;-61
2022/01/28 12:12:57;;;;;;;20.97;4.40;;;7.10;99.90;;;;;;5069265;28;20705;-61
2022/01/28 12:15:29;;;;;;;19.73;3.40;;;7.20;99.90;;;;;;5070220;28;20671;-61
2022/01/28 12:18:10;;;;;;;18.57;3.80;;;7.10;99.90;;;;;;5073259;28;20292;-61
2022/01/28 12:20:44;;;;;;;16.67;3.60;;;7.00;99.90;;;;;;5056609;28;20269;-61
2022/01/28 12:23:29;;;;;;;18.80;3.13;;;7.10;99.90;;;;;;5070512;28;20711;-61
2022/01/28 12:26:01;;;;;;;25.70;3.87;;;7.20;99.90;;;;;;5073919;28;20238;-61
2022/01/28 12:28:51;;;;;;;15.00;3.00;;;7.30;99.90;;;;;;5073057;28;20322;-61
2022/01/28 12:31:25;;;;;;;23.20;4.27;;;7.20;99.90;;;;;;5055411;28;20403;-61
2022/01/28 12:33:57;;;;;;;12.50;3.30;;;7.20;99.90;;;;;;5033687;28;20235;-61
2022/01/28 12:36:28;;;;;;;19.33;3.10;;;7.20;99.90;;;;;;5033711;28;20260;-61
2022/01/28 12:39:13;;;;;;;14.63;3.00;;;7.10;99.90;;;;;;5055261;28;20289;-61
2022/01/28 12:41:54;;;;;;;13.93;3.23;;;7.10;99.90;;;;;;5072979;28;20231;-61
2022/01/28 12:44:23;;;;;;;18.03;3.37;;;7.10;99.90;;;;;;5073478;28;20310;-61
2022/01/28 12:46:58;;;;;;;18.40;3.53;;;7.10;99.90;;;;;;5073157;28;20317;-62
2022/01/28 12:49:28;;;;;;;20.20;3.57;;;7.00;99.90;;;;;;5073131;28;20643;-61
2022/01/28 12:51:58;;;;;;;17.00;3.87;;;7.00;99.90;;;;;;5073255;28;20276;-61
2022/01/28 12:54:38;;;;;;;19.73;3.80;;;7.10;99.90;;;;;;5073381;28;20238;-61
2022/01/28 12:57:08;;;;;;;12.70;2.70;;;7.00;99.90;;;;;;5073048;28;20296;-61
2022/01/28 12:59:37;;;;;;;20.23;3.63;;;7.00;99.90;;;;;;5072974;28;20300;-62
2022/01/28 13:02:07;;;;;;;23.33;4.27;;;7.00;99.90;;;;;;5072995;28;20658;-62
2022/01/28 13:04:56;;;;;;;16.50;3.40;;;6.90;99.90;;;;;;5072889;28;20227;-61
2022/01/28 13:10:10;;;;;;;20.73;3.50;;;6.70;99.90;;;;;;5072480;28;20241;-61
2022/01/28 13:12:38;;;;;;;15.80;3.50;;;6.60;99.90;;;;;;5072626;28;20310;-62
2022/01/28 13:15:09;;;;;;;14.30;3.17;;;6.50;99.90;;;;;;5072912;28;20587;-61
2022/01/28 13:17:39;;;;;;;19.53;3.20;;;6.50;99.90;;;;;;5072776;28;20429;-61
2022/01/28 13:20:10;;;;;;;21.23;3.23;;;6.50;99.90;;;;;;5055351;28;20703;-62
2022/01/28 13:22:39;;;;;;;15.30;2.83;;;6.60;99.90;;;;;;5062453;28;20237;-61
2022/01/28 13:25:19;;;;;;;15.17;3.13;;;6.60;99.90;;;;;;5064603;28;20648;-61
2022/01/28 13:27:51;;;;;;;15.37;3.93;;;6.60;99.90;;;;;;5062764;28;20262;-61
2022/01/28 13:30:20;;;;;;;16.10;2.90;;;6.50;99.90;;;;;;5071879;28;20230;-61
2022/01/28 13:32:51;;;;;;;25.60;3.17;;;6.50;99.90;;;;;;5072402;28;20254;-61
2022/01/28 13:35:21;;;;;;;14.57;3.17;;;6.60;99.90;;;;;;5072596;28;20247;-61
2022/01/28 13:37:51;;;;;;;19.97;3.40;;;6.50;99.90;;;;;;5072460;28;20363;-60
2022/01/28 13:40:32;;;;;;;18.77;3.00;;;6.50;99.90;;;;;;5070948;28;20239;-61
2022/01/28 13:43:02;;;;;;;21.03;3.23;;;6.60;99.90;;;;;;5070214;28;20242;-61
2022/01/28 13:45:34;;;;;;;23.10;3.10;;;6.60;99.90;;;;;;5072030;28;20348;-61
2022/01/28 13:48:06;;;;;;;19.67;3.37;;;6.60;99.90;;;;;;5071853;28;20243;-60
2022/01/28 13:50:36;;;;;;;12.73;3.10;;;6.60;99.90;;;;;;5071471;28;20687;-61
2022/01/28 13:55:54;;;;;;;15.97;2.73;;;6.70;99.90;;;;;;5062601;28;20254;-60
2022/01/28 13:58:23;;;;;;;18.80;3.47;;;6.70;99.90;;;;;;5071209;28;20314;-61
2022/01/28 14:00:52;;;;;;;17.47;3.00;;;6.70;99.90;;;;;;5071134;28;20691;-61
2022/01/28 14:03:29;;;;;;;19.27;3.47;;;6.70;99.90;;;;;;5071131;28;20234;-61